Time,TemperatureF,DewpointF,PressureIn,WindDirection,WindDirectionDegrees,WindSpeedMPH,WindSpeedGustMPH,Humidity,HourlyPrecipIn,Conditions,Clouds,dailyrainin,SoftwareType,DateUTC
2015-05-28 01:23:00,76.3,64.0,30.06,SE,137,0.0,-999.0,66,-99.99,,,0.00,weatherlink.com 1.10,2015-05-28 05:23:00,
2015-05-28 01:28:00,76.1,64.0,30.05,SE,137,3.0,-999.0,67,-99.99,,,0.00,weatherlink.com 1.10,2015-05-28 05:28:00,
2015-05-28 01:43:00,76.5,65.0,30.05,ESE,106,1.0,-999.0,68,-99.99,,,0.00,weatherlink.com 1.10,2015-05-28 05:43:00,
2015-05-28 01:58:00,76.4,66.0,30.05,ESE,107,1.0,-999.0,70,-99.99,,,0.00,weatherlink.com 1.10,2015-05-28 05:58:00,
2015-05-28 02:13:00,76.2,66.0,30.04,ESE,107,0.0,-999.0,71,-99.99,,,0.00,weatherlink.com 1.10,2015-05-28 06:13:00,
2015-05-28 02:28:00,76.0,66.0,30.03,NE,56,1.0,-999.0,72,-99.99,,,0.00,weatherlink.com 1.10,2015-05-28 06:28:00,
2015-05-28 02:43:00,76.0,66.0,30.03,NE,55,0.0,-999.0,72,-99.99,,,0.00,weatherlink.com 1.10,2015-05-28 06:43:00,
2015-05-28 02:58:00,75.8,67.0,30.03,NE,55,1.0,-999.0,74,-99.99,,,0.00,weatherlink.com 1.10,2015-05-28 06:58:00,
2015-05-28 03:13:00,76.0,68.0,30.02,ENE,59,5.0,-999.0,75,-99.99,,,0.00,weatherlink.com 1.10,2015-05-28 07:13:00,
2015-05-28 03:28:00,76.3,67.0,30.02,ENE,61,2.0,-999.0,74,-99.99,,,0.00,weatherlink.com 1.10,2015-05-28 07:28:00,
2015-05-28 03:43:00,76.7,68.0,30.02,SE,128,2.0,-999.0,75,-99.99,,,0.00,weatherlink.com 1.10,2015-05-28 07:43:00,
2015-05-28 03:58:00,76.4,68.0,30.02,SE,128,1.0,-999.0,74,-99.99,,,0.00,weatherlink.com 1.10,2015-05-28 07:58:00,
2015-05-28 04:13:00,76.2,67.0,30.02,SE,128,0.0,-999.0,73,-99.99,,,0.00,weatherlink.com 1.10,2015-05-28 08:13:00,
2015-05-28 04:28:00,76.9,66.0,30.02,SE,129,2.0,-999.0,70,-99.99,,,0.00,weatherlink.com 1.10,2015-05-28 08:28:00,
2015-05-28 04:43:00,77.5,65.0,30.02,SE,143,2.0,-999.0,66,-99.99,,,0.00,weatherlink.com 1.10,2015-05-28 08:43:00,
2015-05-28 04:58:00,77.4,65.0,30.03,SE,127,2.0,-999.0,65,-99.99,,,0.00,weatherlink.com 1.10,2015-05-28 08:58:00,
2015-05-28 05:13:00,77.0,64.0,30.03,ESE,120,2.0,-999.0,65,-99.99,,,0.00,weatherlink.com 1.10,2015-05-28 09:13:00,
2015-05-28 05:43:00,75.9,64.0,30.03,ESE,122,0.0,-999.0,67,-99.99,,,0.00,weatherlink.com 1.10,2015-05-28 09:43:00,
2015-05-28 05:58:00,75.9,64.0,30.03,SE,125,0.0,-999.0,67,-99.99,,,0.00,weatherlink.com 1.10,2015-05-28 09:58:00,
2015-05-28 06:13:00,75.6,64.0,30.03,SE,125,0.0,-999.0,68,-99.99,,,0.00,weatherlink.com 1.10,2015-05-28 10:13:00,
2015-05-28 06:29:00,75.8,64.0,30.03,ESE,118,0.0,-999.0,67,-99.99,,,0.00,weatherlink.com 1.10,2015-05-28 10:29:00,
2015-05-28 06:44:00,76.4,64.0,30.03,ESE,119,0.0,-999.0,66,-99.99,,,0.00,weatherlink.com 1.10,2015-05-28 10:44:00,
2015-05-28 06:59:00,76.8,65.0,30.04,SE,146,0.0,-999.0,67,-99.99,,,0.00,weatherlink.com 1.10,2015-05-28 10:59:00,
2015-05-28 07:14:00,77.3,65.0,30.03,SE,130,3.0,-999.0,67,-99.99,,,0.00,weatherlink.com 1.10,2015-05-28 11:14:00,
2015-05-28 07:29:00,77.0,67.0,30.04,ESE,120,0.0,-999.0,70,-99.99,,,0.00,weatherlink.com 1.10,2015-05-28 11:29:00,
2015-05-28 07:44:00,77.5,65.0,30.05,ESE,118,1.0,-999.0,66,-99.99,,,0.00,weatherlink.com 1.10,2015-05-28 11:44:00,
2015-05-28 07:59:00,78.1,67.0,30.05,ESE,119,3.0,-999.0,68,-99.99,,,0.00,weatherlink.com 1.10,2015-05-28 11:59:00,
2015-05-28 08:14:00,78.6,67.0,30.05,SE,140,2.0,-999.0,67,-99.99,,,0.00,weatherlink.com 1.10,2015-05-28 12:14:00,
2015-05-28 10:00:00,80.7,67.0,30.07,East,98,0.0,-999.0,63,-99.99,,,0.00,weatherlink.com 1.10,2015-05-28 14:00:00,